createdAt,value
2022-08-04T00:03:38.429Z,21.82
2022-08-04T00:06:30.912Z,21.83
2022-08-04T00:26:13.138Z,21.69
2022-08-04T00:34:39.080Z,21.66
2022-08-04T00:37:09.432Z,21.66
2022-08-04T00:39:40.384Z,21.65
2022-08-04T00:42:58.228Z,21.62
2022-08-04T00:49:26.382Z,21.55
2022-08-04T00:52:30.945Z,21.50
2022-08-04T00:55:19.737Z,21.50
2022-08-04T00:58:11.936Z,21.55
2022-08-04T01:00:50.632Z,21.61
2022-08-04T01:03:33.516Z,21.65
2022-08-04T01:06:13.911Z,21.68
2022-08-04T01:08:58.057Z,21.74
2022-08-04T01:11:57.152Z,21.84
2022-08-04T01:14:55.577Z,21.91
2022-08-04T01:17:43.630Z,21.93
2022-08-04T01:23:34.260Z,21.95
2022-08-04T01:26:43.759Z,21.85
2022-08-04T01:29:42.282Z,21.80
2022-08-04T01:32:28.385Z,21.62
2022-08-04T01:35:05.503Z,21.62
2022-08-04T01:40:30.803Z,21.49
2022-08-04T01:43:09.799Z,21.40
2022-08-04T01:45:53.936Z,21.28
2022-08-04T01:53:56.884Z,21.32
2022-08-04T01:56:36.131Z,21.06
2022-08-04T01:59:07.987Z,21.33
2022-08-04T02:01:41.816Z,21.28
2022-08-04T02:04:19.481Z,21.15
2022-08-04T02:10:10.481Z,21.27
2022-08-04T02:12:58.775Z,21.24
2022-08-04T02:21:08.037Z,21.31
2022-08-04T02:23:47.615Z,21.32
2022-08-04T02:26:23.371Z,21.39
2022-08-04T02:29:04.617Z,21.36
2022-08-04T02:31:47.469Z,21.28
2022-08-04T02:34:27.911Z,21.42
2022-08-04T02:39:49.196Z,21.64
2022-08-04T02:59:03.807Z,22.14
2022-08-04T03:04:25.486Z,22.30
2022-08-04T03:07:37.553Z,22.49
2022-08-04T03:10:49.235Z,22.66
2022-08-04T03:13:41.575Z,22.70
2022-08-04T03:16:38.522Z,23.02
2022-08-04T03:19:53.605Z,23.10
2022-08-04T03:23:13.054Z,23.39
2022-08-04T03:26:33.981Z,23.48
2022-08-04T03:29:36.651Z,23.53
2022-08-04T03:35:31.684Z,23.69
2022-08-04T03:41:59.838Z,24.18
2022-08-04T03:45:23.220Z,24.36
2022-08-04T03:48:10.104Z,24.61
2022-08-04T03:51:35.238Z,24.65
2022-08-04T03:54:47.246Z,24.71
2022-08-04T03:57:46.820Z,24.95
2022-08-04T04:00:19.390Z,24.97
2022-08-04T04:03:28.677Z,24.91
2022-08-04T04:06:18.080Z,25.46
2022-08-04T04:09:20.628Z,25.46
2022-08-04T04:12:28.549Z,25.51
2022-08-04T04:15:12.161Z,25.49
2022-08-04T04:18:19.208Z,25.54
2022-08-04T04:21:08.648Z,25.66
2022-08-04T04:23:58.810Z,25.71
2022-08-04T04:26:39.863Z,25.69
2022-08-04T04:29:27.619Z,25.77
2022-08-04T04:32:11.956Z,25.70
2022-08-04T04:34:51.633Z,25.96
2022-08-04T04:37:30.046Z,25.97
2022-08-04T04:40:10.175Z,26.00
2022-08-04T04:43:02.646Z,26.18
2022-08-04T04:45:36.563Z,26.23
2022-08-04T04:48:19.397Z,26.33
2022-08-04T04:51:04.922Z,26.42
2022-08-04T04:53:46.528Z,26.37
2022-08-04T04:56:24.855Z,26.38
2022-08-04T04:58:56.894Z,26.38
2022-08-04T05:01:58.867Z,26.67
2022-08-04T05:04:58.558Z,26.80
2022-08-04T05:07:58.951Z,26.87
2022-08-04T05:10:48.381Z,26.91
2022-08-04T05:14:37.035Z,26.66
2022-08-04T05:16:32.602Z,27.09
2022-08-04T05:19:28.403Z,27.15
2022-08-04T05:22:16.838Z,27.23
2022-08-04T05:24:50.913Z,26.96
2022-08-04T05:27:40.086Z,27.33
2022-08-04T05:30:13.547Z,27.38
2022-08-04T05:32:52.061Z,27.38
2022-08-04T05:35:52.845Z,27.44
2022-08-04T05:38:26.176Z,27.37
2022-08-04T05:40:56.689Z,27.54
2022-08-04T05:43:30.041Z,27.53
2022-08-04T05:46:15.299Z,27.49
2022-08-04T05:48:48.167Z,27.44
2022-08-04T05:51:18.531Z,27.76
2022-08-04T05:56:51.150Z,27.90
2022-08-04T05:59:21.299Z,27.95
2022-08-04T06:01:55.967Z,27.99
2022-08-04T06:04:30.150Z,28.06
2022-08-04T06:06:58.732Z,28.14
2022-08-04T06:09:27.304Z,28.13
2022-08-04T06:12:03.970Z,28.17
2022-08-04T06:14:37.525Z,28.11
2022-08-04T06:18:32.625Z,27.98
2022-08-04T06:20:18.033Z,28.02
2022-08-04T06:22:49.553Z,28.09
2022-08-04T06:25:22.588Z,28.14
2022-08-04T06:27:54.158Z,28.25
2022-08-04T06:30:26.918Z,28.33
2022-08-04T06:33:03.667Z,28.40
2022-08-04T06:35:34.534Z,28.47
2022-08-04T06:38:04.266Z,28.42
2022-08-04T06:40:34.840Z,28.45
2022-08-04T06:43:07.917Z,28.57
2022-08-04T06:45:39.411Z,28.38
2022-08-04T06:48:08.921Z,28.46
2022-08-04T06:51:29.757Z,28.56
2022-08-04T06:53:27.704Z,28.60
2022-08-04T06:55:57.901Z,28.59
2022-08-04T06:58:29.328Z,28.65
2022-08-04T07:01:02.204Z,28.60
2022-08-04T07:03:32.559Z,28.62
2022-08-04T07:06:06.086Z,28.37
2022-08-04T07:08:43.403Z,28.60
2022-08-04T07:11:12.542Z,28.64
2022-08-04T07:13:45.394Z,28.62
2022-08-04T07:16:15.906Z,28.71
2022-08-04T07:18:44.726Z,28.83
2022-08-04T07:21:20.173Z,28.84
2022-08-04T07:23:48.820Z,28.88
2022-08-04T07:26:19.369Z,28.83
2022-08-04T07:28:49.231Z,28.86
2022-08-04T07:31:35.197Z,28.85
2022-08-04T07:34:16.416Z,28.88
2022-08-04T07:36:50.846Z,28.91
2022-08-04T07:39:28.299Z,28.81
2022-08-04T07:42:01.413Z,28.88
2022-08-04T07:44:33.067Z,29.13
2022-08-04T07:47:02.527Z,29.17
2022-08-04T07:49:54.773Z,29.03
2022-08-04T07:52:20.217Z,29.45
2022-08-04T07:54:50.727Z,29.53
2022-08-04T07:57:40.570Z,29.64
2022-08-04T08:00:29.642Z,29.70
2022-08-04T08:02:58.673Z,29.65
2022-08-04T08:05:27.755Z,29.82
2022-08-04T08:07:57.171Z,29.85
2022-08-04T08:10:26.282Z,29.90
2022-08-04T08:12:55.466Z,29.89
2022-08-04T08:15:24.558Z,29.87
2022-08-04T08:17:58.779Z,29.69
2022-08-04T08:20:30.874Z,30.06
2022-08-04T08:23:00.281Z,30.04
2022-08-04T08:25:29.195Z,30.23
2022-08-04T08:27:57.829Z,30.19
2022-08-04T08:30:31.596Z,30.30
2022-08-04T08:33:06.253Z,30.32
2022-08-04T08:35:51.097Z,30.52
2022-08-04T08:38:40.253Z,30.71
2022-08-04T08:41:51.923Z,30.80
2022-08-04T08:44:54.831Z,30.79
2022-08-04T08:48:05.132Z,30.72
2022-08-04T08:50:59.098Z,30.90
2022-08-04T08:53:51.598Z,31.04
2022-08-04T08:56:32.975Z,31.22
2022-08-04T08:59:23.587Z,31.41
2022-08-04T09:02:13.945Z,31.78
2022-08-04T09:05:04.125Z,32.03
2022-08-04T09:08:08.447Z,32.39
2022-08-04T09:10:43.647Z,32.25
2022-08-04T09:13:19.223Z,32.17
2022-08-04T09:15:55.960Z,32.40
2022-08-04T09:18:29.315Z,32.59
2022-08-04T09:21:04.210Z,32.78
2022-08-04T09:23:43.020Z,32.69
2022-08-04T09:26:20.636Z,32.42
2022-08-04T09:28:54.349Z,32.28
2022-08-04T09:31:26.427Z,32.17
2022-08-04T09:34:06.151Z,32.01
2022-08-04T09:36:41.064Z,32.28
2022-08-04T09:39:19.146Z,32.46
2022-08-04T09:42:00.305Z,32.66
2022-08-04T09:44:51.334Z,32.94
2022-08-04T09:47:39.165Z,33.30
2022-08-04T09:50:26.929Z,33.47
2022-08-04T09:53:04.952Z,33.69
2022-08-04T09:55:53.596Z,33.87
2022-08-04T09:58:37.510Z,33.89
2022-08-04T10:01:11.629Z,33.97
2022-08-04T10:03:43.712Z,34.09
2022-08-04T10:06:29.376Z,34.25
2022-08-04T10:09:10.595Z,34.46
2022-08-04T10:11:55.994Z,35.02
2022-08-04T10:14:40.211Z,36.06
2022-08-04T10:17:23.913Z,36.90
2022-08-04T10:20:01.823Z,37.86
2022-08-04T10:22:55.443Z,38.95
2022-08-04T10:26:05.413Z,40.02
2022-08-04T10:28:32.705Z,41.26
2022-08-04T10:31:08.620Z,42.14
2022-08-04T10:33:44.618Z,42.72
2022-08-04T10:36:18.697Z,43.27
2022-08-04T10:38:54.142Z,43.95
2022-08-04T10:41:35.220Z,44.72
2022-08-04T10:44:23.692Z,44.88
2022-08-04T10:46:57.235Z,44.90
2022-08-04T10:49:36.474Z,45.67
2022-08-04T10:52:10.304Z,46.43
2022-08-04T10:54:48.355Z,47.29
2022-08-04T10:57:23.207Z,48.18
2022-08-04T11:00:03.424Z,48.83
2022-08-04T11:02:41.473Z,49.61
2022-08-04T11:05:27.485Z,49.95
2022-08-04T11:08:01.781Z,50.64
2022-08-04T11:10:34.927Z,51.07
2022-08-04T11:13:22.119Z,51.55
2022-08-04T11:16:05.669Z,51.08
2022-08-04T11:18:44.813Z,50.89
2022-08-04T11:21:20.016Z,51.02
2022-08-04T11:23:54.744Z,51.02
2022-08-04T11:26:31.929Z,51.15
2022-08-04T11:29:09.631Z,51.70
2022-08-04T11:31:48.426Z,51.25
2022-08-04T11:34:24.692Z,51.16
2022-08-04T11:37:01.822Z,51.21
2022-08-04T11:39:35.138Z,51.57
2022-08-04T11:42:12.036Z,51.59
2022-08-04T11:44:48.150Z,51.91
2022-08-04T11:47:30.486Z,51.49
2022-08-04T11:50:06.963Z,50.99
2022-08-04T11:52:36.998Z,50.79
2022-08-04T11:55:10.545Z,50.43
2022-08-04T11:57:39.607Z,49.60
2022-08-04T12:00:12.517Z,48.77
2022-08-04T12:03:00.653Z,47.53
2022-08-04T12:05:36.685Z,46.46
2022-08-04T12:08:31.072Z,45.71
2022-08-04T12:11:10.686Z,44.91
2022-08-04T12:13:47.702Z,44.54
2022-08-04T12:16:19.926Z,44.43
2022-08-04T12:18:57.732Z,44.87
2022-08-04T12:21:33.207Z,45.61
2022-08-04T12:24:05.575Z,47.07
2022-08-04T12:26:39.771Z,47.78
2022-08-04T12:29:15.349Z,48.35
2022-08-04T12:31:48.552Z,48.78
2022-08-04T12:34:29.995Z,48.86
2022-08-04T12:37:06.635Z,49.35
2022-08-04T12:39:40.918Z,49.31
2022-08-04T12:42:35.513Z,49.52
2022-08-04T12:45:10.273Z,49.67
2022-08-04T12:47:41.215Z,49.93
2022-08-04T12:50:15.683Z,50.13
2022-08-04T12:53:04.338Z,50.46
2022-08-04T12:55:37.312Z,50.45
2022-08-04T12:58:14.837Z,50.60
2022-08-04T13:00:53.046Z,50.71
2022-08-04T13:03:25.273Z,50.64
2022-08-04T13:05:57.398Z,50.69
2022-08-04T13:08:26.042Z,50.57
2022-08-04T13:10:58.986Z,50.15
2022-08-04T13:13:30.475Z,49.89
2022-08-04T13:16:03.802Z,49.80
2022-08-04T13:19:05.472Z,50.17
2022-08-04T13:21:50.132Z,50.27
2022-08-04T13:24:33.015Z,50.13
2022-08-04T13:27:09.065Z,50.78
2022-08-04T13:30:00.353Z,50.73
2022-08-04T13:32:31.658Z,50.66
2022-08-04T13:35:04.006Z,50.55
2022-08-04T13:37:37.415Z,50.63
2022-08-04T13:40:08.101Z,50.51
2022-08-04T13:42:38.630Z,50.81
2022-08-04T13:45:10.092Z,51.10
2022-08-04T13:47:40.881Z,51.08
2022-08-04T13:50:17.809Z,51.21
2022-08-04T13:52:53.809Z,51.14
2022-08-04T13:55:25.093Z,50.98
2022-08-04T13:57:58.747Z,50.67
2022-08-04T14:00:29.417Z,50.46
2022-08-04T14:03:03.262Z,50.45
2022-08-04T14:05:58.889Z,50.38
2022-08-04T14:08:29.036Z,50.38
2022-08-04T14:11:00.742Z,50.52
2022-08-04T14:13:40.991Z,50.49
2022-08-04T14:16:19.131Z,50.40
2022-08-04T14:18:47.993Z,50.41
2022-08-04T14:21:18.401Z,50.46
2022-08-04T14:23:52.116Z,50.30
2022-08-04T14:26:31.601Z,49.84
2022-08-04T14:29:27.400Z,48.75
2022-08-04T14:32:14.584Z,48.35
2022-08-04T14:34:46.698Z,48.14
2022-08-04T14:37:19.549Z,48.04
2022-08-04T14:40:17.542Z,47.91
2022-08-04T14:42:42.856Z,47.85
2022-08-04T14:45:12.264Z,47.87
2022-08-04T14:47:51.803Z,47.58
2022-08-04T14:50:23.009Z,47.28
2022-08-04T14:52:51.517Z,47.13
2022-08-04T14:55:23.811Z,47.07
2022-08-04T14:58:36.284Z,46.76
2022-08-04T15:00:42.161Z,46.76
2022-08-04T15:03:12.045Z,46.58
2022-08-04T15:06:00.463Z,46.58
2022-08-04T15:08:32.192Z,46.58
2022-08-04T15:11:03.632Z,46.28
2022-08-04T15:13:33.596Z,46.10
2022-08-04T15:16:07.790Z,45.97
2022-08-04T15:18:40.486Z,45.94
2022-08-04T15:21:09.680Z,45.76
2022-08-04T15:23:40.231Z,45.43
2022-08-04T15:26:13.872Z,44.94
2022-08-04T15:28:54.676Z,44.56
2022-08-04T15:32:05.698Z,44.28
2022-08-04T15:34:15.104Z,44.44
2022-08-04T15:36:56.854Z,44.20
2022-08-04T15:39:36.231Z,44.21
2022-08-04T15:42:20.993Z,44.06
2022-08-04T15:45:19.642Z,43.73
2022-08-04T15:48:29.079Z,43.55
2022-08-04T15:51:14.244Z,43.08
2022-08-04T15:54:24.613Z,42.96
2022-08-04T15:57:02.360Z,42.68
2022-08-04T16:00:00.112Z,42.45
2022-08-04T16:02:41.133Z,42.16
2022-08-04T16:05:31.493Z,41.86
2022-08-04T16:08:04.785Z,41.08
2022-08-04T16:10:41.270Z,41.07
2022-08-04T16:13:13.923Z,40.85
2022-08-04T16:15:46.968Z,40.47
2022-08-04T16:18:26.270Z,40.20
2022-08-04T16:20:57.934Z,39.57
2022-08-04T16:24:02.217Z,39.48
2022-08-04T16:26:56.196Z,38.92
2022-08-04T16:29:38.111Z,38.31
2022-08-04T16:32:26.467Z,37.86
2022-08-04T16:35:00.111Z,37.52
2022-08-04T16:37:34.684Z,37.13
2022-08-04T16:40:33.795Z,36.82
2022-08-04T16:43:06.976Z,36.26
2022-08-04T16:45:54.134Z,35.83
2022-08-04T16:48:27.024Z,35.29
2022-08-04T16:51:05.162Z,34.92
2022-08-04T16:54:03.287Z,34.43
2022-08-04T16:56:33.407Z,33.97
2022-08-04T16:59:10.610Z,33.45
2022-08-04T17:01:39.983Z,33.04
2022-08-04T17:04:09.908Z,32.44
2022-08-04T17:06:40.668Z,32.01
2022-08-04T17:09:12.842Z,31.55
2022-08-04T17:11:41.966Z,31.01
2022-08-04T17:14:10.765Z,30.74
2022-08-04T17:16:41.385Z,30.34
2022-08-04T17:19:24.005Z,30.06
2022-08-04T17:22:04.016Z,29.71
2022-08-04T17:24:35.127Z,29.42
2022-08-04T17:28:19.792Z,28.97
2022-08-04T17:29:53.086Z,28.85
2022-08-04T17:32:23.456Z,28.71
2022-08-04T17:37:53.749Z,28.25
2022-08-04T17:40:25.707Z,28.05
2022-08-04T17:44:05.155Z,28.00
2022-08-04T17:46:28.167Z,27.75
2022-08-04T17:49:08.291Z,27.70
2022-08-04T17:54:29.956Z,27.40
2022-08-04T17:57:19.530Z,27.43
2022-08-04T17:59:56.326Z,27.29
2022-08-04T18:05:54.078Z,26.95
2022-08-04T18:08:39.362Z,26.95
2022-08-04T18:11:10.600Z,26.91
2022-08-04T18:16:29.623Z,26.84
2022-08-04T18:19:11.152Z,26.62
2022-08-04T18:21:45.522Z,26.74
2022-08-04T18:24:16.251Z,26.62
2022-08-04T18:26:46.346Z,26.65
2022-08-04T18:29:31.359Z,26.62
2022-08-04T18:32:00.799Z,26.60
2022-08-04T18:34:29.259Z,26.34
2022-08-04T18:36:59.371Z,26.68
2022-08-04T18:40:10.665Z,26.62
2022-08-04T18:42:20.150Z,26.77
2022-08-04T18:44:55.291Z,26.80
2022-08-04T18:47:29.720Z,26.58
2022-08-04T18:51:00.985Z,26.86
2022-08-04T18:52:47.489Z,27.00
2022-08-04T18:55:55.843Z,26.90
2022-08-04T18:58:17.213Z,27.09
2022-08-04T19:00:56.125Z,27.14
2022-08-04T19:03:30.613Z,27.18
2022-08-04T19:05:59.444Z,27.22
2022-08-04T19:08:33.359Z,27.24
2022-08-04T19:11:38.480Z,27.14
2022-08-04T19:13:58.600Z,27.31
2022-08-04T19:16:28.706Z,27.33
2022-08-04T19:18:57.428Z,27.31
2022-08-04T19:21:59.197Z,27.37
2022-08-04T19:24:31.814Z,27.38
2022-08-04T19:27:06.813Z,27.21
2022-08-04T19:29:41.284Z,27.40
2022-08-04T19:32:14.816Z,27.45
2022-08-04T19:34:47.080Z,27.31
2022-08-04T19:37:58.337Z,27.41
2022-08-04T19:40:09.474Z,27.43
2022-08-04T19:42:38.695Z,27.42
2022-08-04T19:45:15.693Z,27.25
2022-08-04T19:48:11.372Z,27.40
2022-08-04T19:50:33.103Z,27.47
2022-08-04T19:53:01.941Z,27.37
2022-08-04T19:55:49.929Z,27.33
2022-08-04T19:58:25.853Z,27.09
2022-08-04T20:00:56.500Z,27.24
2022-08-04T20:06:14.258Z,27.25
2022-08-04T20:08:48.409Z,27.21
2022-08-04T20:11:18.534Z,27.18
2022-08-04T20:13:54.136Z,27.09
2022-08-04T20:16:30.004Z,26.99
2022-08-04T20:19:03.920Z,26.91
2022-08-04T20:21:53.630Z,27.02
2022-08-04T20:24:39.974Z,26.99
2022-08-04T20:27:15.466Z,26.86
2022-08-04T20:29:48.694Z,26.95
2022-08-04T20:32:22.234Z,26.93
2022-08-04T20:34:52.275Z,26.92
2022-08-04T20:37:23.413Z,26.87
2022-08-04T20:39:55.598Z,26.90
2022-08-04T20:42:27.476Z,26.86
2022-08-04T20:45:01.874Z,26.92
2022-08-04T20:47:35.430Z,26.83
2022-08-04T20:50:09.156Z,26.59
2022-08-04T20:52:43.244Z,26.72
2022-08-04T20:55:12.011Z,26.68
2022-08-04T20:57:49.440Z,26.59
2022-08-04T21:00:26.281Z,26.58
2022-08-04T21:02:59.825Z,26.50
2022-08-04T21:05:28.270Z,26.43
2022-08-04T21:07:57.543Z,26.29
2022-08-04T21:10:26.827Z,26.16
2022-08-04T21:12:55.608Z,26.17
2022-08-04T21:15:50.708Z,26.07
2022-08-04T21:18:16.795Z,25.97
2022-08-04T21:20:47.992Z,25.87
2022-08-04T21:23:17.002Z,25.79
2022-08-04T21:25:50.009Z,25.67
2022-08-04T21:28:20.118Z,25.64
2022-08-04T21:30:52.526Z,25.60
2022-08-04T21:33:23.178Z,25.45
2022-08-04T21:35:54.348Z,25.38
2022-08-04T21:38:25.222Z,25.39
2022-08-04T21:41:01.645Z,25.27
2022-08-04T21:43:42.398Z,25.22
2022-08-04T21:46:11.893Z,25.25
2022-08-04T21:48:42.520Z,25.23
2022-08-04T21:51:59.017Z,25.17
2022-08-04T21:54:05.128Z,25.10
2022-08-04T21:56:34.922Z,25.10
2022-08-04T21:59:10.637Z,25.10
2022-08-04T22:01:52.413Z,25.11
2022-08-04T22:04:24.720Z,25.10
2022-08-04T22:06:53.387Z,25.03
2022-08-04T22:09:22.383Z,24.86
2022-08-04T22:11:52.205Z,25.02
2022-08-04T22:14:29.596Z,24.98
2022-08-04T22:17:04.080Z,24.97
2022-08-04T22:19:40.283Z,24.90
2022-08-04T22:22:26.302Z,24.81
2022-08-04T22:24:58.790Z,24.76
2022-08-04T22:27:47.812Z,24.76
2022-08-04T22:30:23.875Z,24.69
2022-08-04T22:32:52.512Z,24.56
2022-08-04T22:35:44.371Z,24.61
2022-08-04T22:38:22.330Z,24.67
2022-08-04T22:40:59.317Z,24.64
2022-08-04T22:43:32.528Z,24.70
2022-08-04T22:46:05.294Z,24.68
2022-08-04T22:48:36.163Z,24.55
2022-08-04T22:51:08.658Z,24.52
2022-08-04T22:53:37.981Z,24.42
2022-08-04T22:56:10.493Z,24.61
2022-08-04T22:58:45.426Z,24.57
2022-08-04T23:01:20.271Z,24.56
2022-08-04T23:03:55.768Z,24.54
2022-08-04T23:06:28.375Z,24.47
2022-08-04T23:08:57.590Z,24.45
2022-08-04T23:11:34.573Z,24.47
2022-08-04T23:14:05.670Z,24.34
2022-08-04T23:16:40.667Z,24.34
2022-08-04T23:19:15.486Z,24.38
2022-08-04T23:21:47.279Z,24.33
2022-08-04T23:24:16.569Z,24.25
2022-08-04T23:26:48.157Z,24.31
2022-08-04T23:29:16.522Z,24.30
2022-08-04T23:31:59.603Z,24.17
2022-08-04T23:34:29.503Z,24.26
2022-08-04T23:36:59.770Z,24.32
2022-08-04T23:40:03.899Z,24.10
2022-08-04T23:42:21.122Z,24.26
2022-08-04T23:44:50.314Z,24.32
2022-08-04T23:48:16.536Z,24.37
2022-08-04T23:50:08.667Z,24.39
2022-08-04T23:52:39.174Z,24.39
2022-08-04T23:55:18.928Z,24.33
2022-08-04T23:58:06.503Z,24.37
